createdAt,value
2019-03-18T00:01:09.545Z,0.47
2019-03-18T00:03:38.123Z,0.68
2019-03-18T00:06:06.707Z,0.37
2019-03-18T00:08:35.296Z,0.45
2019-03-18T00:11:03.871Z,0.55
2019-03-18T00:13:32.467Z,0.80
2019-03-18T00:16:01.043Z,0.50
2019-03-18T00:18:30.186Z,0.80
2019-03-18T00:20:58.718Z,0.60
2019-03-18T00:23:27.645Z,0.95
2019-03-18T00:25:56.142Z,0.60
2019-03-18T00:28:24.726Z,0.65
2019-03-18T00:30:53.318Z,0.60
2019-03-18T00:33:21.899Z,0.88
2019-03-18T00:35:50.718Z,0.70
2019-03-18T00:38:19.552Z,0.70
2019-03-18T00:40:48.081Z,0.60
2019-03-18T00:43:16.655Z,0.70
2019-03-18T00:45:45.234Z,0.80
2019-03-18T00:48:14.102Z,0.72
2019-03-18T00:50:42.946Z,1.00
2019-03-18T00:53:11.738Z,1.67
2019-03-18T00:55:40.562Z,1.30
2019-03-18T00:58:09.302Z,1.10
2019-03-18T01:00:37.863Z,1.50
2019-03-18T01:03:06.439Z,1.40
2019-03-18T01:05:35.374Z,1.42
2019-03-18T01:08:04.191Z,1.72
2019-03-18T01:10:33.199Z,1.20
2019-03-18T01:13:02.043Z,1.40
2019-03-18T01:15:30.834Z,1.52
2019-03-18T01:17:59.607Z,1.42
2019-03-18T01:20:28.169Z,1.60
2019-03-18T01:22:56.995Z,1.82
2019-03-18T01:25:25.495Z,1.67
2019-03-18T01:27:54.027Z,2.17
2019-03-18T01:30:22.606Z,1.67
2019-03-18T01:32:51.210Z,1.45
2019-03-18T01:35:19.766Z,2.20
2019-03-18T01:37:48.706Z,2.42
2019-03-18T01:40:17.349Z,2.20
2019-03-18T01:42:45.939Z,2.05
2019-03-18T01:45:14.518Z,1.77
2019-03-18T01:47:43.690Z,1.82
2019-03-18T01:50:12.199Z,1.30
2019-03-18T01:52:40.798Z,1.77
2019-03-18T01:55:09.656Z,1.80
2019-03-18T01:57:38.347Z,1.30
2019-03-18T02:00:07.355Z,1.62
2019-03-18T02:02:35.944Z,1.92
2019-03-18T02:05:05.089Z,1.70
2019-03-18T02:07:33.843Z,1.60
2019-03-18T02:10:02.435Z,1.50
2019-03-18T02:12:31.262Z,1.70
2019-03-18T02:15:00.024Z,1.90
2019-03-18T02:17:28.567Z,2.20
2019-03-18T02:19:57.386Z,1.57
2019-03-18T02:22:26.160Z,2.22
2019-03-18T02:24:54.735Z,1.47
2019-03-18T02:27:23.690Z,1.92
2019-03-18T02:29:52.449Z,1.57
2019-03-18T02:32:20.992Z,2.00
2019-03-18T02:34:50.502Z,2.20
2019-03-18T02:37:19.084Z,2.70
2019-03-18T02:39:47.671Z,2.80
2019-03-18T02:42:16.382Z,2.10
2019-03-18T02:44:45.414Z,2.67
2019-03-18T02:47:13.934Z,2.80
2019-03-18T02:49:42.520Z,2.27
2019-03-18T02:52:11.144Z,1.75
2019-03-18T02:54:40.958Z,2.17
2019-03-18T02:57:09.514Z,2.17
2019-03-18T02:59:38.093Z,2.30
2019-03-18T03:02:06.681Z,2.85
2019-03-18T03:04:35.255Z,2.45
2019-03-18T03:07:03.840Z,3.80
2019-03-18T03:09:32.656Z,3.22
2019-03-18T03:12:01.217Z,4.03
2019-03-18T03:14:29.796Z,3.83
2019-03-18T03:16:58.388Z,3.45
2019-03-18T03:19:27.221Z,4.37
2019-03-18T03:21:55.759Z,4.50
2019-03-18T03:24:24.571Z,4.60
2019-03-18T03:26:53.086Z,4.00
2019-03-18T03:29:21.960Z,4.10
2019-03-18T03:31:50.497Z,4.33
2019-03-18T03:34:19.337Z,5.08
2019-03-18T03:36:47.886Z,4.83
2019-03-18T03:39:16.465Z,5.35
2019-03-18T03:41:45.272Z,4.95
2019-03-18T03:44:14.051Z,5.20
2019-03-18T03:46:44.052Z,5.30
2019-03-18T03:49:12.733Z,5.47
2019-03-18T03:51:41.339Z,5.05
2019-03-18T03:54:09.933Z,5.65
2019-03-18T03:56:38.724Z,5.08
2019-03-18T03:59:07.282Z,5.45
2019-03-18T04:01:35.860Z,5.00
2019-03-18T04:04:04.447Z,4.90
2019-03-18T04:06:33.255Z,5.47
2019-03-18T04:09:01.827Z,5.90
2019-03-18T04:11:30.659Z,5.03
2019-03-18T04:13:59.200Z,5.33
2019-03-18T04:16:27.767Z,4.67
2019-03-18T04:18:56.354Z,5.08
2019-03-18T04:21:25.054Z,4.78
2019-03-18T04:23:53.648Z,4.53
2019-03-18T04:26:22.204Z,4.30
2019-03-18T04:28:50.795Z,4.55
2019-03-18T04:31:19.378Z,4.40
2019-03-18T04:33:48.199Z,4.28
2019-03-18T04:36:16.743Z,3.87
2019-03-18T04:38:45.346Z,3.83
2019-03-18T04:41:13.925Z,3.70
2019-03-18T04:43:42.503Z,3.95
2019-03-18T04:46:11.086Z,3.90
2019-03-18T04:48:39.674Z,3.98
2019-03-18T04:51:08.278Z,4.08
2019-03-18T04:53:36.830Z,3.90
2019-03-18T04:56:05.730Z,4.12
2019-03-18T04:58:34.308Z,3.60
2019-03-18T05:01:03.207Z,3.52
2019-03-18T05:03:31.787Z,3.77
2019-03-18T05:06:00.378Z,3.70
2019-03-18T05:08:28.964Z,3.58
2019-03-18T05:10:58.094Z,3.42
2019-03-18T05:13:26.744Z,3.45
2019-03-18T05:15:55.322Z,3.67
2019-03-18T05:18:24.423Z,3.52
2019-03-18T05:20:53.006Z,3.40
2019-03-18T05:23:21.585Z,4.05
2019-03-18T05:25:50.398Z,3.50
2019-03-18T05:28:18.898Z,3.22
2019-03-18T05:30:47.439Z,3.17
2019-03-18T05:33:16.023Z,3.65
2019-03-18T05:35:44.614Z,3.55
2019-03-18T05:38:13.412Z,3.98
2019-03-18T05:40:42.234Z,3.98
2019-03-18T05:43:10.767Z,4.05
2019-03-18T05:45:39.346Z,4.47
2019-03-18T05:48:07.948Z,3.62
2019-03-18T05:50:36.513Z,3.25
2019-03-18T05:53:05.357Z,4.35
2019-03-18T05:55:34.367Z,4.87
2019-03-18T05:58:03.377Z,4.22
2019-03-18T06:00:31.978Z,4.62
2019-03-18T06:03:00.790Z,3.98
2019-03-18T06:05:29.358Z,5.10
2019-03-18T06:07:57.942Z,4.20
2019-03-18T06:10:26.522Z,3.98
2019-03-18T06:12:55.106Z,5.03
2019-03-18T06:15:23.926Z,4.97
2019-03-18T06:17:53.195Z,4.50
2019-03-18T06:20:21.781Z,4.55
2019-03-18T06:22:50.369Z,4.70
2019-03-18T06:25:18.888Z,4.40
2019-03-18T06:27:47.734Z,4.12
2019-03-18T06:30:16.590Z,5.10
2019-03-18T06:32:45.200Z,3.90
2019-03-18T06:35:13.989Z,3.65
2019-03-18T06:37:42.563Z,3.30
2019-03-18T06:40:11.146Z,3.90
2019-03-18T06:42:40.009Z,3.35
2019-03-18T06:45:08.939Z,3.02
2019-03-18T06:47:37.522Z,2.72
2019-03-18T06:50:06.439Z,3.02
2019-03-18T06:52:34.987Z,2.58
2019-03-18T06:55:03.578Z,2.98
2019-03-18T06:57:32.418Z,2.75
2019-03-18T07:00:01.171Z,2.87
2019-03-18T07:02:29.719Z,2.92
2019-03-18T07:04:58.539Z,2.80
2019-03-18T07:07:27.156Z,2.98
2019-03-18T07:09:56.034Z,2.37
2019-03-18T07:12:24.571Z,2.75
2019-03-18T07:14:53.402Z,2.22
2019-03-18T07:17:21.944Z,2.45
2019-03-18T07:19:51.011Z,1.90
2019-03-18T07:22:19.630Z,1.70
2019-03-18T07:24:48.218Z,1.87
2019-03-18T07:27:16.722Z,1.80
2019-03-18T07:29:45.288Z,1.87
2019-03-18T07:32:14.081Z,1.82
2019-03-18T07:34:42.650Z,1.40
2019-03-18T07:37:11.453Z,1.50
2019-03-18T07:39:40.035Z,1.40
2019-03-18T07:42:08.606Z,1.15
2019-03-18T07:44:37.190Z,0.82
2019-03-18T07:47:06.231Z,0.85
2019-03-18T07:49:34.779Z,0.90
2019-03-18T07:52:03.366Z,1.05
2019-03-18T07:54:33.214Z,0.98
2019-03-18T07:57:02.115Z,1.00
2019-03-18T07:59:30.631Z,1.15
2019-03-18T08:01:59.227Z,1.00
2019-03-18T08:04:36.893Z,1.10
2019-03-18T08:06:58.363Z,0.88
2019-03-18T08:09:27.136Z,0.80
2019-03-18T08:11:56.208Z,1.12
2019-03-18T08:14:24.962Z,1.00
2019-03-18T08:16:53.500Z,1.12
2019-03-18T08:19:22.067Z,0.85
2019-03-18T08:21:50.659Z,1.00
2019-03-18T08:24:19.471Z,0.90
2019-03-18T08:26:48.674Z,1.05
2019-03-18T08:29:17.236Z,0.90
2019-03-18T08:31:45.816Z,0.85
2019-03-18T08:34:14.614Z,1.07
2019-03-18T08:36:43.415Z,1.10
2019-03-18T08:39:11.963Z,1.02
2019-03-18T08:41:40.570Z,0.93
2019-03-18T08:44:09.134Z,0.90
2019-03-18T08:46:37.735Z,0.80
2019-03-18T08:49:06.607Z,0.98
2019-03-18T08:51:35.193Z,0.75
2019-03-18T08:54:04.042Z,1.10
2019-03-18T08:56:32.573Z,1.25
2019-03-18T08:59:01.162Z,1.07
2019-03-18T09:01:29.974Z,0.85
2019-03-18T09:03:58.530Z,1.00
2019-03-18T09:06:30.142Z,1.47
2019-03-18T09:08:57.446Z,1.30
2019-03-18T09:11:26.486Z,2.17
2019-03-18T09:13:55.511Z,1.80
2019-03-18T09:16:24.110Z,1.50
2019-03-18T09:18:52.996Z,1.15
2019-03-18T09:21:21.822Z,1.50
2019-03-18T09:23:50.607Z,1.00
2019-03-18T09:26:19.158Z,1.35
2019-03-18T09:28:47.767Z,1.00
2019-03-18T09:31:16.372Z,1.00
2019-03-18T09:33:45.346Z,1.20
2019-03-18T09:36:14.127Z,1.15
2019-03-18T09:38:42.940Z,1.40
2019-03-18T09:41:11.759Z,1.17
2019-03-18T09:43:40.387Z,0.80
2019-03-18T09:46:08.950Z,0.60
2019-03-18T09:48:37.564Z,1.37
2019-03-18T09:51:06.122Z,1.40
2019-03-18T09:53:37.574Z,1.10
2019-03-18T09:56:05.255Z,1.27
2019-03-18T09:58:34.106Z,1.25
2019-03-18T10:01:02.716Z,0.90
2019-03-18T10:03:31.311Z,0.90
2019-03-18T10:06:00.125Z,1.20
2019-03-18T10:08:28.670Z,0.90
2019-03-18T10:10:57.790Z,0.82
2019-03-18T10:13:26.848Z,1.02
2019-03-18T10:15:55.675Z,0.90
2019-03-18T10:18:24.475Z,1.20
2019-03-18T10:20:53.295Z,1.07
2019-03-18T10:23:21.802Z,1.25
2019-03-18T10:25:50.398Z,1.05
2019-03-18T10:28:19.151Z,1.22
2019-03-18T10:30:47.673Z,1.20
2019-03-18T10:33:16.479Z,1.10
2019-03-18T10:35:45.042Z,1.02
2019-03-18T10:38:14.100Z,1.35
2019-03-18T10:40:43.107Z,1.20
2019-03-18T10:43:11.714Z,0.85
2019-03-18T10:45:40.318Z,0.60
2019-03-18T10:48:09.125Z,0.68
2019-03-18T10:50:37.674Z,0.70
2019-03-18T10:53:06.271Z,0.70
2019-03-18T10:55:34.846Z,0.90
2019-03-18T10:58:03.435Z,1.20
2019-03-18T11:00:32.238Z,0.70
2019-03-18T11:03:00.794Z,0.98
2019-03-18T11:05:29.606Z,0.75
2019-03-18T11:07:58.175Z,0.50
2019-03-18T11:10:26.829Z,0.85
2019-03-18T11:12:55.440Z,0.80
2019-03-18T11:15:24.262Z,0.93
2019-03-18T11:17:53.100Z,0.88
2019-03-18T11:20:21.702Z,0.80
2019-03-18T11:22:50.291Z,1.00
2019-03-18T11:25:19.323Z,1.15
2019-03-18T11:27:48.093Z,1.60
2019-03-18T11:30:16.657Z,1.10
2019-03-18T11:32:45.248Z,0.90
2019-03-18T11:35:14.146Z,0.80
2019-03-18T11:37:43.004Z,0.75
2019-03-18T11:40:11.779Z,0.70
2019-03-18T11:42:40.631Z,0.82
2019-03-18T11:45:10.015Z,1.00
2019-03-18T11:47:38.858Z,0.90
2019-03-18T11:50:11.517Z,0.70
2019-03-18T11:52:37.936Z,0.65
2019-03-18T11:55:08.083Z,0.50
2019-03-18T11:57:36.827Z,0.60
2019-03-18T12:00:06.754Z,0.50
2019-03-18T12:02:35.549Z,0.57
2019-03-18T12:05:05.140Z,0.50
2019-03-18T12:07:33.993Z,0.25
2019-03-18T12:10:02.944Z,0.30
2019-03-18T12:12:31.763Z,0.40
2019-03-18T12:15:00.370Z,0.42
2019-03-18T12:17:29.190Z,0.60
2019-03-18T12:19:57.758Z,0.40
2019-03-18T12:22:26.332Z,0.80
2019-03-18T12:24:56.194Z,0.78
2019-03-18T12:27:24.967Z,0.80
2019-03-18T12:29:54.004Z,0.50
2019-03-18T12:32:22.571Z,0.98
2019-03-18T12:34:51.163Z,0.68
2019-03-18T12:37:20.242Z,0.80
2019-03-18T12:39:49.071Z,0.90
2019-03-18T12:42:17.847Z,1.00
2019-03-18T12:44:46.702Z,0.82
2019-03-18T12:47:15.526Z,0.80
2019-03-18T12:49:44.331Z,0.70
2019-03-18T12:52:13.135Z,0.55
2019-03-18T12:54:41.675Z,0.65
2019-03-18T12:57:10.484Z,0.70
2019-03-18T12:59:39.053Z,0.70
2019-03-18T13:02:07.875Z,0.50
2019-03-18T13:04:36.666Z,0.85
2019-03-18T13:07:05.462Z,0.80
2019-03-18T13:09:34.242Z,0.53
2019-03-18T13:12:03.042Z,0.57
2019-03-18T13:14:31.594Z,0.65
2019-03-18T13:17:00.159Z,0.50
2019-03-18T13:19:28.991Z,0.60
2019-03-18T13:21:58.048Z,0.53
2019-03-18T13:24:26.635Z,0.60
2019-03-18T13:26:55.143Z,0.42
2019-03-18T13:29:23.698Z,0.40
2019-03-18T13:31:52.604Z,0.42
2019-03-18T13:34:21.711Z,0.50
2019-03-18T13:36:50.258Z,0.60
2019-03-18T13:39:19.098Z,0.53
2019-03-18T13:41:47.634Z,1.10
2019-03-18T13:44:16.227Z,0.72
2019-03-18T13:46:44.803Z,0.50
2019-03-18T13:49:15.866Z,0.45
2019-03-18T13:51:44.022Z,0.40
2019-03-18T13:54:12.618Z,0.95
2019-03-18T13:56:41.206Z,0.50
2019-03-18T13:59:09.766Z,0.88
2019-03-18T14:01:38.598Z,0.80
2019-03-18T14:04:07.139Z,1.50
2019-03-18T14:06:36.255Z,1.35
2019-03-18T14:09:06.961Z,1.37
2019-03-18T14:11:35.747Z,1.37
2019-03-18T14:14:04.846Z,0.55
2019-03-18T14:16:33.607Z,0.80
2019-03-18T14:19:02.232Z,0.65
2019-03-18T14:21:33.676Z,1.35
2019-03-18T14:24:02.362Z,1.00
2019-03-18T14:26:30.958Z,0.80
2019-03-18T14:28:59.822Z,0.80
2019-03-18T14:31:28.439Z,0.47
2019-03-18T14:33:57.095Z,0.98
2019-03-18T14:36:25.704Z,1.00
2019-03-18T14:38:54.570Z,0.75
2019-03-18T14:41:23.212Z,0.72
2019-03-18T14:43:52.458Z,0.68
2019-03-18T14:46:21.314Z,0.80
2019-03-18T14:48:50.094Z,0.68
2019-03-18T14:51:18.863Z,1.00
2019-03-18T14:53:47.668Z,0.90
2019-03-18T14:56:16.427Z,0.98
2019-03-18T14:58:45.171Z,0.88
2019-03-18T15:01:13.699Z,0.65
2019-03-18T15:03:42.272Z,0.60
2019-03-18T15:06:10.859Z,0.53
2019-03-18T15:08:39.454Z,0.60
2019-03-18T15:11:08.287Z,0.47
2019-03-18T15:13:37.059Z,0.50
2019-03-18T15:16:05.871Z,0.60
2019-03-18T15:18:34.386Z,0.50
2019-03-18T15:21:03.238Z,0.60
2019-03-18T15:23:31.767Z,0.50
2019-03-18T15:26:00.582Z,0.60
2019-03-18T15:28:29.094Z,0.72
2019-03-18T15:30:57.714Z,0.70
2019-03-18T15:33:26.546Z,0.57
2019-03-18T15:35:55.104Z,0.75
2019-03-18T15:38:23.691Z,0.55
2019-03-18T15:40:52.262Z,0.80
2019-03-18T15:43:21.117Z,0.70
2019-03-18T15:45:49.966Z,0.60
2019-03-18T15:48:18.546Z,0.70
2019-03-18T15:50:47.110Z,1.27
2019-03-18T15:53:15.742Z,1.10
2019-03-18T15:55:46.139Z,0.65
2019-03-18T15:58:14.718Z,0.80
2019-03-18T16:00:43.283Z,0.50
2019-03-18T16:03:12.110Z,0.68
2019-03-18T16:05:40.919Z,0.70
2019-03-18T16:08:09.462Z,0.60
2019-03-18T16:10:38.031Z,0.62
2019-03-18T16:13:06.846Z,0.75
2019-03-18T16:15:35.642Z,0.80
2019-03-18T16:18:04.204Z,0.60
2019-03-18T16:20:32.781Z,0.90
2019-03-18T16:23:01.591Z,0.55
2019-03-18T16:25:30.409Z,0.60
2019-03-18T16:27:58.964Z,0.70
2019-03-18T16:30:27.619Z,0.70
2019-03-18T16:32:56.437Z,0.78
2019-03-18T16:35:26.190Z,0.82
2019-03-18T16:37:54.946Z,0.60
2019-03-18T16:40:23.494Z,0.90
2019-03-18T16:42:51.986Z,0.68
2019-03-18T16:45:20.530Z,0.95
2019-03-18T16:47:49.102Z,0.80
2019-03-18T16:50:17.942Z,0.88
2019-03-18T16:52:46.698Z,0.70
2019-03-18T16:55:15.214Z,0.80
2019-03-18T16:57:43.734Z,0.50
2019-03-18T17:00:14.357Z,0.80
2019-03-18T17:02:43.133Z,0.90
2019-03-18T17:05:11.668Z,0.80
2019-03-18T17:07:40.430Z,0.90
2019-03-18T17:10:09.251Z,0.90
2019-03-18T17:12:37.991Z,0.80
2019-03-18T17:15:06.902Z,0.68
2019-03-18T17:17:35.669Z,1.67
2019-03-18T17:20:05.106Z,1.77
2019-03-18T17:22:33.933Z,2.10
2019-03-18T17:25:02.727Z,1.87
2019-03-18T17:27:31.456Z,1.60
2019-03-18T17:30:00.193Z,1.70
2019-03-18T17:32:28.943Z,1.37
2019-03-18T17:34:57.454Z,0.80
2019-03-18T17:37:26.046Z,0.98
2019-03-18T17:39:54.563Z,0.82
2019-03-18T17:42:23.551Z,1.10
2019-03-18T17:44:52.279Z,1.07
2019-03-18T17:47:21.067Z,1.85
2019-03-18T17:49:49.583Z,1.60
2019-03-18T17:52:18.112Z,2.25
2019-03-18T17:54:46.667Z,2.40
2019-03-18T17:57:15.223Z,2.05
2019-03-18T17:59:44.106Z,1.40
2019-03-18T18:02:13.123Z,2.20
2019-03-18T18:04:41.927Z,3.35
2019-03-18T18:07:10.482Z,3.00
2019-03-18T18:09:39.071Z,2.70
2019-03-18T18:12:07.655Z,2.33
2019-03-18T18:14:36.486Z,1.98
2019-03-18T18:17:04.999Z,1.80
2019-03-18T18:19:33.532Z,1.50
2019-03-18T18:22:02.506Z,1.87
2019-03-18T18:24:31.015Z,2.92
2019-03-18T18:27:00.022Z,2.35
2019-03-18T18:29:28.580Z,2.22
2019-03-18T18:31:57.495Z,2.47
2019-03-18T18:34:26.321Z,1.75
2019-03-18T18:36:55.138Z,1.60
2019-03-18T18:39:24.214Z,2.42
2019-03-18T18:41:53.319Z,1.90
2019-03-18T18:44:22.227Z,2.00
2019-03-18T18:46:51.149Z,2.15
2019-03-18T18:49:19.722Z,2.33
2019-03-18T18:51:48.298Z,2.20
2019-03-18T18:54:16.906Z,1.92
2019-03-18T18:56:45.726Z,1.32
2019-03-18T18:59:14.371Z,1.90
2019-03-18T19:01:43.170Z,1.70
2019-03-18T19:04:11.773Z,1.60
2019-03-18T19:06:40.555Z,2.15
2019-03-18T19:09:09.106Z,1.25
2019-03-18T19:11:37.975Z,1.87
2019-03-18T19:14:06.587Z,1.77
2019-03-18T19:16:35.156Z,1.92
2019-03-18T19:19:03.765Z,1.82
2019-03-18T19:21:32.547Z,1.72
2019-03-18T19:24:01.631Z,1.75
2019-03-18T19:26:30.131Z,1.60
2019-03-18T19:28:58.694Z,1.82
2019-03-18T19:31:27.274Z,2.62
2019-03-18T19:33:55.863Z,2.37
2019-03-18T19:36:24.448Z,2.45
2019-03-18T19:38:53.034Z,2.25
2019-03-18T19:41:21.610Z,3.15
2019-03-18T19:43:50.214Z,2.92
2019-03-18T19:46:18.774Z,2.45
2019-03-18T19:48:47.702Z,2.50
2019-03-18T19:51:16.714Z,2.67
2019-03-18T19:53:49.437Z,2.55
2019-03-18T19:56:15.775Z,2.95
2019-03-18T19:58:44.615Z,2.95
2019-03-18T20:01:13.147Z,2.80
2019-03-18T20:03:42.058Z,2.62
2019-03-18T20:06:10.642Z,2.62
2019-03-18T20:08:39.206Z,2.62
2019-03-18T20:11:07.799Z,2.67
2019-03-18T20:13:36.662Z,3.10
2019-03-18T20:16:05.277Z,2.27
2019-03-18T20:18:34.150Z,1.90
2019-03-18T20:21:02.978Z,1.87
2019-03-18T20:23:31.531Z,2.10
2019-03-18T20:26:00.132Z,2.67
2019-03-18T20:28:29.131Z,2.52
2019-03-18T20:30:57.699Z,3.05
2019-03-18T20:33:26.498Z,3.30
2019-03-18T20:35:55.619Z,2.75
2019-03-18T20:38:24.166Z,3.58
2019-03-18T20:40:52.818Z,3.00
2019-03-18T20:43:21.750Z,3.00
2019-03-18T20:45:50.571Z,3.35
2019-03-18T20:48:19.113Z,3.58
2019-03-18T20:50:47.697Z,3.55
2019-03-18T20:53:16.524Z,3.60
2019-03-18T20:55:45.075Z,3.83
2019-03-18T20:58:13.878Z,3.75
2019-03-18T21:00:42.447Z,4.05
2019-03-18T21:03:11.030Z,3.98
2019-03-18T21:05:39.547Z,4.37
2019-03-18T21:08:08.446Z,4.00
2019-03-18T21:10:36.976Z,3.83
2019-03-18T21:13:05.823Z,3.50
2019-03-18T21:15:34.354Z,3.75
2019-03-18T21:18:02.967Z,2.55
2019-03-18T21:20:31.865Z,2.37
2019-03-18T21:23:00.419Z,2.25
2019-03-18T21:25:29.479Z,2.02
2019-03-18T21:27:58.015Z,2.22
2019-03-18T21:30:26.811Z,1.90
2019-03-18T21:32:55.694Z,2.15
2019-03-18T21:35:24.473Z,1.57
2019-03-18T21:37:53.054Z,1.80
2019-03-18T21:40:21.632Z,1.75
2019-03-18T21:42:50.226Z,1.70
2019-03-18T21:45:19.044Z,1.70
2019-03-18T21:47:47.822Z,1.42
2019-03-18T21:50:16.371Z,1.90
2019-03-18T21:52:45.194Z,3.85
2019-03-18T21:55:13.808Z,2.27
2019-03-18T21:57:42.558Z,2.22
2019-03-18T22:00:13.018Z,3.98
2019-03-18T22:02:41.770Z,3.77
2019-03-18T22:05:10.336Z,3.80
2019-03-18T22:07:38.909Z,3.87
2019-03-18T22:10:08.721Z,3.10
2019-03-18T22:12:37.315Z,2.58
2019-03-18T22:15:06.839Z,1.45
2019-03-18T22:17:35.642Z,2.15
2019-03-18T22:20:05.351Z,2.33
2019-03-18T22:22:33.913Z,2.58
2019-03-18T22:25:02.490Z,2.60
2019-03-18T22:27:31.062Z,3.10
2019-03-18T22:29:59.677Z,2.83
2019-03-18T22:32:28.234Z,2.30
2019-03-18T22:34:57.322Z,2.67
2019-03-18T22:37:25.910Z,2.22
2019-03-18T22:39:55.054Z,1.70
2019-03-18T22:42:23.591Z,1.80
2019-03-18T22:44:52.199Z,2.25
2019-03-18T22:47:20.780Z,1.50
2019-03-18T22:49:49.630Z,1.87
2019-03-18T22:52:18.246Z,1.67
2019-03-18T22:54:55.548Z,1.82
2019-03-18T22:57:17.871Z,1.52
2019-03-18T22:59:46.447Z,1.77
2019-03-18T23:02:15.403Z,2.47
2019-03-18T23:04:44.145Z,3.20
2019-03-18T23:07:12.714Z,2.67
2019-03-18T23:09:41.320Z,2.75
2019-03-18T23:12:09.882Z,2.95
2019-03-18T23:14:43.015Z,3.00
2019-03-18T23:17:11.559Z,2.75
2019-03-18T23:19:40.138Z,2.37
2019-03-18T23:22:08.735Z,3.00
2019-03-18T23:24:37.306Z,2.80
2019-03-18T23:27:05.887Z,3.20
2019-03-18T23:29:34.931Z,3.37
2019-03-18T23:32:03.476Z,3.67
2019-03-18T23:34:32.290Z,3.65
2019-03-18T23:37:01.111Z,3.45
2019-03-18T23:39:29.722Z,3.83
2019-03-18T23:41:58.327Z,4.50
2019-03-18T23:44:28.466Z,4.35
2019-03-18T23:46:57.110Z,3.92
2019-03-18T23:49:25.707Z,4.20
2019-03-18T23:51:54.282Z,4.47
2019-03-18T23:54:23.128Z,3.90
2019-03-18T23:56:51.651Z,4.20
2019-03-18T23:59:20.271Z,4.10
